createdAt,value
2023-03-20T00:04:31.484Z,22.52
2023-03-20T00:09:28.340Z,21.42
2023-03-20T00:14:25.210Z,25.80
2023-03-20T00:19:24.443Z,22.95
2023-03-20T00:24:21.578Z,24.33
2023-03-20T00:29:23.254Z,22.85
2023-03-20T00:34:23.605Z,23.80
2023-03-20T00:39:20.430Z,23.50
2023-03-20T00:44:25.796Z,24.48
2023-03-20T00:49:27.907Z,23.77
2023-03-20T00:54:24.719Z,23.45
2023-03-20T00:59:25.565Z,24.15
2023-03-20T01:04:22.397Z,25.17
2023-03-20T01:09:18.774Z,22.58
2023-03-20T01:14:16.056Z,28.00
2023-03-20T01:19:14.014Z,23.27
2023-03-20T01:24:10.467Z,24.70
2023-03-20T01:29:21.418Z,22.25
2023-03-20T01:34:36.468Z,23.88
2023-03-20T01:39:36.342Z,25.17
2023-03-20T01:44:34.678Z,21.80
2023-03-20T01:50:08.609Z,25.00
2023-03-20T02:00:10.229Z,24.98
2023-03-20T02:05:15.760Z,22.75
2023-03-20T02:10:16.343Z,23.20
2023-03-20T02:15:15.934Z,22.55
2023-03-20T02:20:45.082Z,22.95
2023-03-20T02:25:51.857Z,21.55
2023-03-20T02:31:01.903Z,21.02
2023-03-20T02:36:25.467Z,21.38
2023-03-20T02:41:45.791Z,19.40
2023-03-20T02:47:21.646Z,20.90
2023-03-20T02:52:43.874Z,20.10
2023-03-20T02:57:58.332Z,18.77
2023-03-20T03:03:18.885Z,18.20
2023-03-20T03:08:20.541Z,16.20
2023-03-20T03:13:21.805Z,15.90
2023-03-20T03:18:22.494Z,12.30
2023-03-20T03:23:26.806Z,13.45
2023-03-20T03:28:31.582Z,12.27
2023-03-20T03:33:33.618Z,11.48
2023-03-20T03:38:35.741Z,12.02
2023-03-20T03:43:40.054Z,10.13
2023-03-20T03:48:47.520Z,10.73
2023-03-20T03:53:58.006Z,10.43
2023-03-20T03:59:04.219Z,10.93
2023-03-20T04:04:04.921Z,10.30
2023-03-20T04:09:01.520Z,9.60
2023-03-20T04:13:57.950Z,9.65
2023-03-20T04:18:56.108Z,8.50
2023-03-20T04:23:52.541Z,10.15
2023-03-20T04:28:49.023Z,9.60
2023-03-20T04:33:45.974Z,10.68
2023-03-20T04:38:42.478Z,9.90
2023-03-20T04:43:40.256Z,12.35
2023-03-20T04:48:36.672Z,10.25
2023-03-20T04:53:33.114Z,11.43
2023-03-20T04:58:29.627Z,10.82
2023-03-20T05:03:27.666Z,11.50
2023-03-20T05:08:24.124Z,10.02
2023-03-20T05:13:20.605Z,10.40
2023-03-20T05:18:17.096Z,12.18
2023-03-20T05:23:13.514Z,10.60
2023-03-20T05:28:10.130Z,11.07
2023-03-20T05:33:08.045Z,11.15
2023-03-20T05:38:04.562Z,13.15
2023-03-20T05:43:01.082Z,12.30
2023-03-20T05:47:57.502Z,11.65
2023-03-20T05:52:53.944Z,12.98
2023-03-20T05:57:50.368Z,14.48
2023-03-20T06:02:47.674Z,13.38
2023-03-20T06:07:44.347Z,15.13
2023-03-20T06:12:40.765Z,14.50
2023-03-20T06:17:37.208Z,12.68
2023-03-20T06:22:33.677Z,12.48
2023-03-20T06:27:31.250Z,12.35
2023-03-20T06:32:27.706Z,12.02
2023-03-20T06:37:24.434Z,11.27
2023-03-20T06:42:21.020Z,11.77
2023-03-20T06:47:17.557Z,10.75
2023-03-20T06:52:19.452Z,11.43
2023-03-20T06:57:17.638Z,10.13
2023-03-20T07:02:14.099Z,10.10
2023-03-20T07:07:10.885Z,10.38
2023-03-20T07:12:14.379Z,10.63
2023-03-20T07:17:11.612Z,10.30
2023-03-20T07:22:15.404Z,9.95
2023-03-20T07:27:12.291Z,10.27
2023-03-20T07:32:08.767Z,9.65
2023-03-20T07:37:05.629Z,9.55
2023-03-20T07:42:02.205Z,9.70
2023-03-20T07:46:58.648Z,8.20
2023-03-20T07:51:55.136Z,8.40
2023-03-20T07:56:51.740Z,9.55
2023-03-20T08:01:48.173Z,9.52
2023-03-20T08:06:44.724Z,8.80
2023-03-20T08:11:41.132Z,8.63
2023-03-20T08:16:37.794Z,8.23
2023-03-20T08:21:34.295Z,8.60
2023-03-20T08:26:31.021Z,8.80
2023-03-20T08:31:27.656Z,7.90
2023-03-20T08:36:24.597Z,8.13
2023-03-20T08:41:21.002Z,8.05
2023-03-20T08:46:17.435Z,8.02
2023-03-20T08:51:13.889Z,7.53
2023-03-20T08:56:10.319Z,8.48
2023-03-20T09:01:08.398Z,8.80
2023-03-20T09:06:07.444Z,8.90
2023-03-20T09:11:05.088Z,9.43
2023-03-20T09:16:01.492Z,9.63
2023-03-20T09:20:58.366Z,10.18
2023-03-20T09:25:54.928Z,9.57
2023-03-20T09:30:56.188Z,9.73
2023-03-20T09:35:52.763Z,9.05
2023-03-20T09:41:03.930Z,8.98
2023-03-20T09:46:23.411Z,7.95
2023-03-20T09:51:36.358Z,9.55
2023-03-20T09:56:33.458Z,9.55
2023-03-20T10:01:47.458Z,8.68
2023-03-20T10:06:46.412Z,8.30
2023-03-20T10:12:21.038Z,10.07
2023-03-20T10:17:41.885Z,10.43
2023-03-20T10:22:44.776Z,10.55
2023-03-20T10:27:51.901Z,10.88
2023-03-20T10:32:54.357Z,9.45
2023-03-20T10:37:56.410Z,9.55
2023-03-20T10:42:59.064Z,9.90
2023-03-20T10:47:58.646Z,9.35
2023-03-20T10:52:57.016Z,9.75
2023-03-20T10:58:08.963Z,10.32
2023-03-20T11:03:06.540Z,9.38
2023-03-20T11:08:11.717Z,8.45
2023-03-20T11:13:29.615Z,9.70
2023-03-20T11:18:26.342Z,9.45
2023-03-20T11:23:33.435Z,10.55
2023-03-20T11:28:47.560Z,9.38
2023-03-20T11:33:51.446Z,10.00
2023-03-20T11:38:50.502Z,8.85
2023-03-20T11:43:46.927Z,8.93
2023-03-20T11:48:48.120Z,9.13
2023-03-20T11:53:48.242Z,9.27
2023-03-20T11:59:11.751Z,8.35
2023-03-20T12:09:36.446Z,9.95
2023-03-20T12:14:54.821Z,10.55
2023-03-20T12:19:54.794Z,9.77
2023-03-20T12:25:02.546Z,10.23
2023-03-20T12:30:04.798Z,10.50
2023-03-20T12:35:10.369Z,10.07
2023-03-20T12:40:15.539Z,10.00
2023-03-20T12:45:30.876Z,10.38
2023-03-20T12:50:39.973Z,9.15
2023-03-20T12:55:48.580Z,9.40
2023-03-20T13:00:53.765Z,9.77
2023-03-20T13:06:04.222Z,9.93
2023-03-20T13:11:26.084Z,10.27
2023-03-20T13:17:01.067Z,10.48
2023-03-20T13:22:14.640Z,9.50
2023-03-20T13:27:16.778Z,8.98
2023-03-20T13:32:25.896Z,9.02
2023-03-20T13:37:56.781Z,8.73
2023-03-20T13:43:26.339Z,9.23
2023-03-20T13:48:40.262Z,8.98
2023-03-20T13:53:46.244Z,8.43
2023-03-20T13:58:56.279Z,9.20
2023-03-20T14:03:54.094Z,9.38
2023-03-20T14:08:54.459Z,9.48
2023-03-20T14:13:55.514Z,8.98
2023-03-20T14:19:06.511Z,9.05
2023-03-20T14:24:15.536Z,10.68
2023-03-20T14:29:11.941Z,8.68
2023-03-20T14:34:11.634Z,9.50
2023-03-20T14:39:20.923Z,8.85
2023-03-20T14:44:38.435Z,8.50
2023-03-20T14:49:48.781Z,9.48
2023-03-20T14:54:55.122Z,9.10
2023-03-20T14:59:51.523Z,8.80
2023-03-20T15:04:48.497Z,8.95
2023-03-20T15:09:47.804Z,8.50
2023-03-20T15:14:51.165Z,7.90
2023-03-20T15:19:50.006Z,8.65
2023-03-20T15:24:55.654Z,8.88
2023-03-20T15:29:54.662Z,8.55
2023-03-20T15:34:51.147Z,8.75
2023-03-20T15:39:51.480Z,8.30
2023-03-20T15:44:50.099Z,9.20
2023-03-20T15:49:53.272Z,9.25
2023-03-20T15:54:49.979Z,9.52
2023-03-20T15:59:46.599Z,9.07
2023-03-20T16:04:47.973Z,8.98
2023-03-20T16:09:44.512Z,9.55
2023-03-20T16:14:41.406Z,10.48
2023-03-20T16:19:39.029Z,10.15
2023-03-20T16:24:38.645Z,10.25
2023-03-20T16:29:36.966Z,9.77
2023-03-20T16:34:36.181Z,10.13
2023-03-20T16:39:33.106Z,11.32
2023-03-20T16:44:35.330Z,11.38
2023-03-20T16:49:54.187Z,10.55
2023-03-20T16:54:50.998Z,9.35
2023-03-20T16:59:47.758Z,11.48
2023-03-20T17:04:47.543Z,10.43
2023-03-20T17:10:16.634Z,11.55
2023-03-20T17:15:18.713Z,11.68
2023-03-20T17:20:42.583Z,10.95
2023-03-20T17:25:39.230Z,11.95
2023-03-20T17:30:36.149Z,14.55
2023-03-20T17:35:32.793Z,11.25
2023-03-20T17:40:30.815Z,11.25
2023-03-20T17:45:27.693Z,11.82
2023-03-20T17:50:26.825Z,11.35
2023-03-20T17:55:23.242Z,12.15
2023-03-20T18:00:23.037Z,12.45
2023-03-20T18:05:19.900Z,12.45
2023-03-20T18:10:25.244Z,14.60
2023-03-20T18:15:21.693Z,15.40
2023-03-20T18:20:30.996Z,14.20
2023-03-20T18:25:28.393Z,14.68
2023-03-20T18:30:29.914Z,12.80
2023-03-20T18:35:26.607Z,13.20
2023-03-20T18:40:32.442Z,13.38
2023-03-20T18:45:30.790Z,13.85
2023-03-20T18:50:37.755Z,12.93
2023-03-20T18:55:36.086Z,12.30
2023-03-20T19:00:40.505Z,13.63
2023-03-20T19:05:37.526Z,14.00
2023-03-20T19:10:36.504Z,13.40
2023-03-20T19:15:36.482Z,13.40
2023-03-20T19:20:38.934Z,14.10
2023-03-20T19:25:37.532Z,14.45
2023-03-20T19:30:39.320Z,14.82
2023-03-20T19:35:58.875Z,15.98
2023-03-20T19:40:53.612Z,16.17
2023-03-20T19:45:56.469Z,15.90
2023-03-20T19:50:57.071Z,14.95
2023-03-20T19:55:54.636Z,16.30
2023-03-20T20:00:59.751Z,15.73
2023-03-20T20:05:56.755Z,13.85
2023-03-20T20:10:54.143Z,13.60
2023-03-20T20:15:51.134Z,12.63
2023-03-20T20:21:28.816Z,12.98
2023-03-20T20:26:09.411Z,13.52
2023-03-20T20:31:08.388Z,12.50
2023-03-20T20:36:57.652Z,12.70
2023-03-20T20:41:29.465Z,12.88
2023-03-20T20:46:26.438Z,12.48
2023-03-20T20:51:23.110Z,13.30
2023-03-20T20:56:19.573Z,14.70
2023-03-20T21:01:16.105Z,12.55
2023-03-20T21:06:13.234Z,13.30
2023-03-20T21:11:12.966Z,15.52
2023-03-20T21:16:09.493Z,14.20
2023-03-20T21:21:11.209Z,15.50
2023-03-20T21:26:09.434Z,18.27
2023-03-20T21:31:23.896Z,17.27
2023-03-20T21:36:23.394Z,17.67
2023-03-20T21:41:20.300Z,22.83
2023-03-20T21:57:42.694Z,21.92
2023-03-20T22:02:16.838Z,23.52
2023-03-20T22:18:28.746Z,21.45
2023-03-20T22:34:24.138Z,15.98
2023-03-20T22:49:31.034Z,17.58
2023-03-20T22:54:27.440Z,17.00
2023-03-20T22:59:23.884Z,17.92
2023-03-20T23:04:20.693Z,16.75
2023-03-20T23:09:17.212Z,14.68
2023-03-20T23:14:21.341Z,16.00
2023-03-20T23:19:18.313Z,15.90
2023-03-20T23:24:14.776Z,16.83
2023-03-20T23:29:11.572Z,17.08
2023-03-20T23:34:08.021Z,14.52
2023-03-20T23:39:06.109Z,18.63
2023-03-20T23:44:03.101Z,17.00
2023-03-20T23:48:59.621Z,19.80
2023-03-20T23:53:57.384Z,18.73
2023-03-20T23:58:59.586Z,19.40
